sensor_id;sensor_type;location;lat;lon;timestamp;P1;durP1;ratioP1;P2;durP2;ratioP2
70908;SDS011;58554;52.006;5.926;2022-11-15T00:00:46;27.90;;;13.50;;
70908;SDS011;58554;52.006;5.926;2022-11-15T00:03:13;30.80;;;13.83;;
70908;SDS011;58554;52.006;5.926;2022-11-15T00:05:41;31.20;;;13.87;;
70908;SDS011;58554;52.006;5.926;2022-11-15T00:08:10;30.30;;;14.95;;
70908;SDS011;58554;52.006;5.926;2022-11-15T00:10:37;28.47;;;13.50;;
70908;SDS011;58554;52.006;5.926;2022-11-15T00:13:05;32.13;;;13.90;;
70908;SDS011;58554;52.006;5.926;2022-11-15T00:15:34;26.50;;;14.03;;
70908;SDS011;58554;52.006;5.926;2022-11-15T00:18:01;28.48;;;13.50;;
70908;SDS011;58554;52.006;5.926;2022-11-15T00:20:29;29.13;;;14.73;;
70908;SDS011;58554;52.006;5.926;2022-11-15T00:22:55;27.42;;;14.90;;
70908;SDS011;58554;52.006;5.926;2022-11-15T00:25:24;30.63;;;14.67;;
70908;SDS011;58554;52.006;5.926;2022-11-15T00:27:54;30.67;;;14.30;;
70908;SDS011;58554;52.006;5.926;2022-11-15T00:30:21;29.65;;;14.77;;
70908;SDS011;58554;52.006;5.926;2022-11-15T00:32:48;29.90;;;14.43;;
70908;SDS011;58554;52.006;5.926;2022-11-15T00:35:15;30.57;;;14.43;;
70908;SDS011;58554;52.006;5.926;2022-11-15T00:37:42;31.77;;;15.27;;
70908;SDS011;58554;52.006;5.926;2022-11-15T00:40:09;29.47;;;15.13;;
70908;SDS011;58554;52.006;5.926;2022-11-15T00:42:39;29.90;;;14.60;;
70908;SDS011;58554;52.006;5.926;2022-11-15T00:45:07;31.50;;;15.68;;
70908;SDS011;58554;52.006;5.926;2022-11-15T00:47:35;31.93;;;15.17;;
70908;SDS011;58554;52.006;5.926;2022-11-15T00:50:02;32.75;;;16.75;;
70908;SDS011;58554;52.006;5.926;2022-11-15T00:52:30;32.50;;;15.33;;
70908;SDS011;58554;52.006;5.926;2022-11-15T00:54:56;32.07;;;15.77;;
70908;SDS011;58554;52.006;5.926;2022-11-15T00:57:23;32.60;;;15.57;;
70908;SDS011;58554;52.006;5.926;2022-11-15T00:59:52;29.87;;;15.50;;
70908;SDS011;58554;52.006;5.926;2022-11-15T01:02:18;27.90;;;14.57;;
70908;SDS011;58554;52.006;5.926;2022-11-15T01:04:45;28.63;;;14.93;;
70908;SDS011;58554;52.006;5.926;2022-11-15T01:07:12;31.42;;;15.57;;
70908;SDS011;58554;52.006;5.926;2022-11-15T01:09:38;28.00;;;14.43;;
70908;SDS011;58554;52.006;5.926;2022-11-15T01:12:05;28.30;;;15.02;;
70908;SDS011;58554;52.006;5.926;2022-11-15T01:14:31;27.50;;;15.27;;
70908;SDS011;58554;52.006;5.926;2022-11-15T01:17:00;30.02;;;16.63;;
70908;SDS011;58554;52.006;5.926;2022-11-15T01:19:27;27.83;;;15.60;;
70908;SDS011;58554;52.006;5.926;2022-11-15T01:21:53;28.48;;;15.57;;
70908;SDS011;58554;52.006;5.926;2022-11-15T01:24:20;26.23;;;14.87;;
70908;SDS011;58554;52.006;5.926;2022-11-15T01:26:46;24.90;;;14.60;;
70908;SDS011;58554;52.006;5.926;2022-11-15T01:29:13;30.02;;;15.00;;
70908;SDS011;58554;52.006;5.926;2022-11-15T01:31:39;25.60;;;14.83;;
70908;SDS011;58554;52.006;5.926;2022-11-15T01:34:08;26.33;;;15.00;;
70908;SDS011;58554;52.006;5.926;2022-11-15T01:36:35;27.77;;;14.63;;
70908;SDS011;58554;52.006;5.926;2022-11-15T01:39:01;29.30;;;15.90;;
70908;SDS011;58554;52.006;5.926;2022-11-15T01:41:28;30.53;;;17.33;;
70908;SDS011;58554;52.006;5.926;2022-11-15T01:47:05;25.07;;;15.33;;
70908;SDS011;58554;52.006;5.926;2022-11-15T01:49:42;25.63;;;15.37;;
70908;SDS011;58554;52.006;5.926;2022-11-15T01:52:21;29.63;;;15.80;;
70908;SDS011;58554;52.006;5.926;2022-11-15T01:54:52;29.57;;;15.50;;
70908;SDS011;58554;52.006;5.926;2022-11-15T01:57:27;23.43;;;14.60;;
70908;SDS011;58554;52.006;5.926;2022-11-15T01:59:54;28.73;;;15.25;;
70908;SDS011;58554;52.006;5.926;2022-11-15T02:02:23;27.25;;;15.82;;
70908;SDS011;58554;52.006;5.926;2022-11-15T02:04:52;26.67;;;15.05;;
70908;SDS011;58554;52.006;5.926;2022-11-15T02:07:19;24.93;;;14.27;;
70908;SDS011;58554;52.006;5.926;2022-11-15T02:09:48;29.20;;;15.73;;
70908;SDS011;58554;52.006;5.926;2022-11-15T02:12:18;25.20;;;14.52;;
70908;SDS011;58554;52.006;5.926;2022-11-15T02:14:48;28.20;;;15.40;;
70908;SDS011;58554;52.006;5.926;2022-11-15T02:17:24;26.83;;;14.98;;
70908;SDS011;58554;52.006;5.926;2022-11-15T02:23:34;24.03;;;14.13;;
70908;SDS011;58554;52.006;5.926;2022-11-15T02:27:13;25.83;;;14.13;;
70908;SDS011;58554;52.006;5.926;2022-11-15T02:30:28;25.13;;;13.23;;
70908;SDS011;58554;52.006;5.926;2022-11-15T02:33:09;26.00;;;14.33;;
70908;SDS011;58554;52.006;5.926;2022-11-15T02:35:55;26.42;;;14.85;;
70908;SDS011;58554;52.006;5.926;2022-11-15T02:38:29;27.63;;;15.07;;
70908;SDS011;58554;52.006;5.926;2022-11-15T02:41:09;27.00;;;14.30;;
70908;SDS011;58554;52.006;5.926;2022-11-15T02:43:43;22.53;;;14.47;;
70908;SDS011;58554;52.006;5.926;2022-11-15T02:46:24;25.67;;;14.73;;
70908;SDS011;58554;52.006;5.926;2022-11-15T02:49:01;25.90;;;14.38;;
70908;SDS011;58554;52.006;5.926;2022-11-15T02:51:27;24.53;;;14.07;;
70908;SDS011;58554;52.006;5.926;2022-11-15T02:53:54;24.45;;;13.95;;
70908;SDS011;58554;52.006;5.926;2022-11-15T02:56:20;26.08;;;13.95;;
70908;SDS011;58554;52.006;5.926;2022-11-15T03:01:55;24.92;;;13.85;;
70908;SDS011;58554;52.006;5.926;2022-11-15T03:04:44;23.07;;;13.33;;
70908;SDS011;58554;52.006;5.926;2022-11-15T03:07:20;23.90;;;14.13;;
70908;SDS011;58554;52.006;5.926;2022-11-15T03:10:00;23.67;;;13.55;;
70908;SDS011;58554;52.006;5.926;2022-11-15T03:12:35;23.17;;;13.13;;
70908;SDS011;58554;52.006;5.926;2022-11-15T03:15:12;21.75;;;13.52;;
70908;SDS011;58554;52.006;5.926;2022-11-15T03:17:51;23.77;;;13.83;;
70908;SDS011;58554;52.006;5.926;2022-11-15T03:20:25;22.23;;;13.30;;
70908;SDS011;58554;52.006;5.926;2022-11-15T03:22:56;23.87;;;13.97;;
70908;SDS011;58554;52.006;5.926;2022-11-15T03:25:30;21.87;;;13.83;;
70908;SDS011;58554;52.006;5.926;2022-11-15T03:28:03;23.97;;;13.50;;
70908;SDS011;58554;52.006;5.926;2022-11-15T03:30:35;22.07;;;13.83;;
70908;SDS011;58554;52.006;5.926;2022-11-15T03:33:08;21.23;;;13.23;;
70908;SDS011;58554;52.006;5.926;2022-11-15T03:35:38;22.73;;;14.03;;
70908;SDS011;58554;52.006;5.926;2022-11-15T03:38:11;21.83;;;13.93;;
70908;SDS011;58554;52.006;5.926;2022-11-15T03:40:47;20.93;;;13.07;;
70908;SDS011;58554;52.006;5.926;2022-11-15T03:43:26;22.57;;;13.50;;
70908;SDS011;58554;52.006;5.926;2022-11-15T03:46:02;21.98;;;13.43;;
70908;SDS011;58554;52.006;5.926;2022-11-15T03:48:42;23.10;;;14.25;;
70908;SDS011;58554;52.006;5.926;2022-11-15T03:51:18;22.80;;;13.63;;
70908;SDS011;58554;52.006;5.926;2022-11-15T03:53:45;22.27;;;13.77;;
70908;SDS011;58554;52.006;5.926;2022-11-15T03:56:12;24.50;;;14.13;;
70908;SDS011;58554;52.006;5.926;2022-11-15T03:58:38;22.17;;;13.23;;
70908;SDS011;58554;52.006;5.926;2022-11-15T04:01:05;22.77;;;12.97;;
70908;SDS011;58554;52.006;5.926;2022-11-15T04:03:31;24.33;;;13.10;;
70908;SDS011;58554;52.006;5.926;2022-11-15T04:06:00;22.20;;;12.47;;
70908;SDS011;58554;52.006;5.926;2022-11-15T04:08:27;22.17;;;13.80;;
70908;SDS011;58554;52.006;5.926;2022-11-15T04:10:53;25.25;;;13.95;;
70908;SDS011;58554;52.006;5.926;2022-11-15T04:13:19;22.97;;;13.60;;
70908;SDS011;58554;52.006;5.926;2022-11-15T04:15:46;23.13;;;13.27;;
70908;SDS011;58554;52.006;5.926;2022-11-15T04:18:12;24.90;;;13.60;;
70908;SDS011;58554;52.006;5.926;2022-11-15T04:20:39;27.27;;;13.73;;
70908;SDS011;58554;52.006;5.926;2022-11-15T04:23:09;22.92;;;13.23;;
70908;SDS011;58554;52.006;5.926;2022-11-15T04:25:38;22.47;;;13.27;;
70908;SDS011;58554;52.006;5.926;2022-11-15T04:28:05;23.33;;;12.73;;
70908;SDS011;58554;52.006;5.926;2022-11-15T04:30:31;23.27;;;13.55;;
70908;SDS011;58554;52.006;5.926;2022-11-15T04:32:58;22.33;;;12.60;;
70908;SDS011;58554;52.006;5.926;2022-11-15T04:35:24;24.13;;;13.57;;
70908;SDS011;58554;52.006;5.926;2022-11-15T04:37:51;24.97;;;13.30;;
70908;SDS011;58554;52.006;5.926;2022-11-15T04:40:20;20.70;;;13.30;;
70908;SDS011;58554;52.006;5.926;2022-11-15T04:42:47;24.80;;;14.00;;
70908;SDS011;58554;52.006;5.926;2022-11-15T04:45:14;23.27;;;13.45;;
70908;SDS011;58554;52.006;5.926;2022-11-15T04:47:42;23.90;;;13.63;;
70908;SDS011;58554;52.006;5.926;2022-11-15T04:50:11;23.23;;;12.80;;
70908;SDS011;58554;52.006;5.926;2022-11-15T04:52:38;24.83;;;13.43;;
70908;SDS011;58554;52.006;5.926;2022-11-15T04:55:04;25.17;;;13.40;;
70908;SDS011;58554;52.006;5.926;2022-11-15T04:57:34;23.93;;;13.80;;
70908;SDS011;58554;52.006;5.926;2022-11-15T05:00:01;22.85;;;13.55;;
70908;SDS011;58554;52.006;5.926;2022-11-15T05:02:30;25.03;;;13.27;;
70908;SDS011;58554;52.006;5.926;2022-11-15T05:04:57;22.88;;;13.60;;
70908;SDS011;58554;52.006;5.926;2022-11-15T05:07:23;24.55;;;13.77;;
70908;SDS011;58554;52.006;5.926;2022-11-15T05:09:50;21.80;;;13.23;;
70908;SDS011;58554;52.006;5.926;2022-11-15T05:12:16;21.73;;;13.20;;
70908;SDS011;58554;52.006;5.926;2022-11-15T05:14:45;23.73;;;13.70;;
70908;SDS011;58554;52.006;5.926;2022-11-15T05:17:11;22.97;;;13.47;;
70908;SDS011;58554;52.006;5.926;2022-11-15T05:19:38;22.47;;;12.70;;
70908;SDS011;58554;52.006;5.926;2022-11-15T05:22:04;24.10;;;13.47;;
70908;SDS011;58554;52.006;5.926;2022-11-15T05:24:31;20.87;;;13.07;;
70908;SDS011;58554;52.006;5.926;2022-11-15T05:26:57;22.27;;;14.00;;
70908;SDS011;58554;52.006;5.926;2022-11-15T05:29:23;22.17;;;13.37;;
70908;SDS011;58554;52.006;5.926;2022-11-15T05:31:52;24.35;;;13.82;;
70908;SDS011;58554;52.006;5.926;2022-11-15T05:34:19;26.03;;;14.13;;
70908;SDS011;58554;52.006;5.926;2022-11-15T05:36:45;27.57;;;13.90;;
70908;SDS011;58554;52.006;5.926;2022-11-15T05:39:12;27.00;;;15.23;;
70908;SDS011;58554;52.006;5.926;2022-11-15T05:41:39;23.50;;;14.23;;
70908;SDS011;58554;52.006;5.926;2022-11-15T05:44:15;26.00;;;14.33;;
70908;SDS011;58554;52.006;5.926;2022-11-15T05:46:47;25.63;;;13.87;;
70908;SDS011;58554;52.006;5.926;2022-11-15T05:49:20;23.83;;;14.33;;
70908;SDS011;58554;52.006;5.926;2022-11-15T05:51:54;23.67;;;14.50;;
70908;SDS011;58554;52.006;5.926;2022-11-15T05:54:23;24.47;;;14.07;;
70908;SDS011;58554;52.006;5.926;2022-11-15T05:56:51;26.33;;;14.85;;
70908;SDS011;58554;52.006;5.926;2022-11-15T05:59:19;25.90;;;14.17;;
70908;SDS011;58554;52.006;5.926;2022-11-15T06:01:46;23.52;;;13.80;;
70908;SDS011;58554;52.006;5.926;2022-11-15T06:04:12;22.80;;;14.17;;
70908;SDS011;58554;52.006;5.926;2022-11-15T06:06:41;24.58;;;14.02;;
70908;SDS011;58554;52.006;5.926;2022-11-15T06:09:08;24.47;;;13.83;;
70908;SDS011;58554;52.006;5.926;2022-11-15T06:11:34;22.97;;;13.83;;
70908;SDS011;58554;52.006;5.926;2022-11-15T06:14:01;23.50;;;13.83;;
70908;SDS011;58554;52.006;5.926;2022-11-15T06:16:27;22.27;;;13.30;;
70908;SDS011;58554;52.006;5.926;2022-11-15T06:18:54;23.60;;;14.43;;
70908;SDS011;58554;52.006;5.926;2022-11-15T06:21:20;22.43;;;13.33;;
70908;SDS011;58554;52.006;5.926;2022-11-15T06:23:49;22.30;;;12.97;;
70908;SDS011;58554;52.006;5.926;2022-11-15T06:26:16;22.63;;;13.90;;
70908;SDS011;58554;52.006;5.926;2022-11-15T06:28:42;21.73;;;13.63;;
70908;SDS011;58554;52.006;5.926;2022-11-15T06:31:09;25.77;;;13.53;;
70908;SDS011;58554;52.006;5.926;2022-11-15T06:33:37;22.63;;;13.93;;
70908;SDS011;58554;52.006;5.926;2022-11-15T06:36:05;23.53;;;13.93;;
70908;SDS011;58554;52.006;5.926;2022-11-15T06:38:35;23.73;;;13.13;;
70908;SDS011;58554;52.006;5.926;2022-11-15T06:41:06;23.00;;;13.93;;
70908;SDS011;58554;52.006;5.926;2022-11-15T06:43:35;21.52;;;13.38;;
70908;SDS011;58554;52.006;5.926;2022-11-15T06:46:03;23.35;;;13.70;;
70908;SDS011;58554;52.006;5.926;2022-11-15T06:48:32;23.43;;;13.30;;
70908;SDS011;58554;52.006;5.926;2022-11-15T06:51:00;22.73;;;13.97;;
70908;SDS011;58554;52.006;5.926;2022-11-15T06:53:30;22.77;;;13.47;;
70908;SDS011;58554;52.006;5.926;2022-11-15T06:55:58;23.07;;;14.40;;
70908;SDS011;58554;52.006;5.926;2022-11-15T06:58:28;26.27;;;15.27;;
70908;SDS011;58554;52.006;5.926;2022-11-15T07:00:58;23.40;;;14.47;;
70908;SDS011;58554;52.006;5.926;2022-11-15T07:03:25;23.65;;;14.55;;
70908;SDS011;58554;52.006;5.926;2022-11-15T07:05:52;23.13;;;14.37;;
70908;SDS011;58554;52.006;5.926;2022-11-15T07:08:20;23.70;;;15.07;;
70908;SDS011;58554;52.006;5.926;2022-11-15T07:10:47;24.37;;;14.63;;
70908;SDS011;58554;52.006;5.926;2022-11-15T07:13:14;27.40;;;15.20;;
70908;SDS011;58554;52.006;5.926;2022-11-15T07:15:44;30.60;;;16.00;;
70908;SDS011;58554;52.006;5.926;2022-11-15T07:18:10;27.48;;;15.40;;
70908;SDS011;58554;52.006;5.926;2022-11-15T07:20:37;26.70;;;14.60;;
70908;SDS011;58554;52.006;5.926;2022-11-15T07:23:04;23.43;;;13.83;;
70908;SDS011;58554;52.006;5.926;2022-11-15T07:25:31;23.90;;;13.97;;
70908;SDS011;58554;52.006;5.926;2022-11-15T07:27:58;24.83;;;13.90;;
70908;SDS011;58554;52.006;5.926;2022-11-15T07:30:26;23.77;;;13.45;;
70908;SDS011;58554;52.006;5.926;2022-11-15T07:32:56;22.83;;;13.30;;
70908;SDS011;58554;52.006;5.926;2022-11-15T07:35:25;22.27;;;12.95;;
70908;SDS011;58554;52.006;5.926;2022-11-15T07:37:54;22.33;;;12.70;;
70908;SDS011;58554;52.006;5.926;2022-11-15T07:40:22;21.57;;;12.40;;
70908;SDS011;58554;52.006;5.926;2022-11-15T07:42:50;22.83;;;12.93;;
70908;SDS011;58554;52.006;5.926;2022-11-15T07:45:16;22.33;;;12.60;;
70908;SDS011;58554;52.006;5.926;2022-11-15T07:47:45;25.13;;;13.13;;
70908;SDS011;58554;52.006;5.926;2022-11-15T07:50:14;24.27;;;12.63;;
70908;SDS011;58554;52.006;5.926;2022-11-15T07:52:42;21.10;;;11.90;;
70908;SDS011;58554;52.006;5.926;2022-11-15T07:55:08;23.03;;;12.80;;
70908;SDS011;58554;52.006;5.926;2022-11-15T07:57:35;21.88;;;12.45;;
70908;SDS011;58554;52.006;5.926;2022-11-15T08:00:02;25.63;;;12.67;;
70908;SDS011;58554;52.006;5.926;2022-11-15T08:02:31;23.73;;;12.83;;
70908;SDS011;58554;52.006;5.926;2022-11-15T08:04:57;24.03;;;11.97;;
70908;SDS011;58554;52.006;5.926;2022-11-15T08:07:27;25.57;;;12.30;;
70908;SDS011;58554;52.006;5.926;2022-11-15T08:09:55;23.52;;;12.25;;
70908;SDS011;58554;52.006;5.926;2022-11-15T08:12:21;21.47;;;12.43;;
70908;SDS011;58554;52.006;5.926;2022-11-15T08:14:49;21.33;;;12.00;;
70908;SDS011;58554;52.006;5.926;2022-11-15T08:17:15;25.47;;;12.27;;
70908;SDS011;58554;52.006;5.926;2022-11-15T08:19:42;24.20;;;12.57;;
70908;SDS011;58554;52.006;5.926;2022-11-15T08:22:08;22.92;;;12.40;;
70908;SDS011;58554;52.006;5.926;2022-11-15T08:24:37;23.67;;;12.13;;
70908;SDS011;58554;52.006;5.926;2022-11-15T08:27:03;24.63;;;11.43;;
70908;SDS011;58554;52.006;5.926;2022-11-15T08:29:30;24.10;;;11.87;;
70908;SDS011;58554;52.006;5.926;2022-11-15T08:31:56;23.20;;;12.02;;
70908;SDS011;58554;52.006;5.926;2022-11-15T08:34:23;23.83;;;11.70;;
70908;SDS011;58554;52.006;5.926;2022-11-15T08:36:49;23.37;;;11.50;;
70908;SDS011;58554;52.006;5.926;2022-11-15T08:39:16;22.90;;;10.87;;
70908;SDS011;58554;52.006;5.926;2022-11-15T08:41:45;22.70;;;10.97;;
70908;SDS011;58554;52.006;5.926;2022-11-15T08:44:11;21.08;;;11.57;;
70908;SDS011;58554;52.006;5.926;2022-11-15T08:46:37;22.53;;;11.33;;
70908;SDS011;58554;52.006;5.926;2022-11-15T08:49:04;22.98;;;11.65;;
70908;SDS011;58554;52.006;5.926;2022-11-15T08:51:30;21.67;;;11.00;;
70908;SDS011;58554;52.006;5.926;2022-11-15T08:53:57;23.10;;;10.73;;
70908;SDS011;58554;52.006;5.926;2022-11-15T08:56:24;22.53;;;11.97;;
70908;SDS011;58554;52.006;5.926;2022-11-15T08:58:53;20.83;;;11.00;;
70908;SDS011;58554;52.006;5.926;2022-11-15T09:01:20;23.23;;;11.77;;
70908;SDS011;58554;52.006;5.926;2022-11-15T09:03:47;22.20;;;11.50;;
70908;SDS011;58554;52.006;5.926;2022-11-15T09:06:14;20.57;;;10.80;;
70908;SDS011;58554;52.006;5.926;2022-11-15T09:08:41;24.60;;;11.93;;
70908;SDS011;58554;52.006;5.926;2022-11-15T09:11:09;20.17;;;10.53;;
70908;SDS011;58554;52.006;5.926;2022-11-15T09:13:36;21.05;;;11.07;;
70908;SDS011;58554;52.006;5.926;2022-11-15T09:16:06;22.38;;;11.13;;
70908;SDS011;58554;52.006;5.926;2022-11-15T09:18:32;20.53;;;10.77;;
70908;SDS011;58554;52.006;5.926;2022-11-15T09:21:00;19.10;;;10.40;;
70908;SDS011;58554;52.006;5.926;2022-11-15T09:23:27;19.80;;;10.00;;
70908;SDS011;58554;52.006;5.926;2022-11-15T09:25:57;17.70;;;9.57;;
70908;SDS011;58554;52.006;5.926;2022-11-15T09:28:26;18.07;;;9.13;;
70908;SDS011;58554;52.006;5.926;2022-11-15T09:30:55;17.50;;;9.60;;
70908;SDS011;58554;52.006;5.926;2022-11-15T09:33:25;16.97;;;9.50;;
70908;SDS011;58554;52.006;5.926;2022-11-15T09:35:53;15.23;;;8.77;;
70908;SDS011;58554;52.006;5.926;2022-11-15T09:38:20;16.80;;;9.20;;
70908;SDS011;58554;52.006;5.926;2022-11-15T09:40:47;15.63;;;9.10;;
70908;SDS011;58554;52.006;5.926;2022-11-15T09:43:27;14.57;;;8.50;;
70908;SDS011;58554;52.006;5.926;2022-11-15T09:46:06;15.70;;;8.70;;
70908;SDS011;58554;52.006;5.926;2022-11-15T09:48:50;14.80;;;9.13;;
70908;SDS011;58554;52.006;5.926;2022-11-15T09:51:29;17.47;;;8.70;;
70908;SDS011;58554;52.006;5.926;2022-11-15T09:54:04;13.70;;;8.40;;
70908;SDS011;58554;52.006;5.926;2022-11-15T09:56:45;15.63;;;8.53;;
70908;SDS011;58554;52.006;5.926;2022-11-15T09:59:16;18.10;;;8.40;;
70908;SDS011;58554;52.006;5.926;2022-11-15T10:02:02;16.23;;;8.40;;
70908;SDS011;58554;52.006;5.926;2022-11-15T10:04:47;15.63;;;8.53;;
70908;SDS011;58554;52.006;5.926;2022-11-15T10:07:16;15.95;;;8.88;;
70908;SDS011;58554;52.006;5.926;2022-11-15T10:09:53;19.53;;;8.77;;
70908;SDS011;58554;52.006;5.926;2022-11-15T10:12:25;16.00;;;8.68;;
70908;SDS011;58554;52.006;5.926;2022-11-15T10:14:55;15.30;;;8.53;;
70908;SDS011;58554;52.006;5.926;2022-11-15T10:17:33;18.77;;;8.20;;
70908;SDS011;58554;52.006;5.926;2022-11-15T10:20:25;13.10;;;7.83;;
70908;SDS011;58554;52.006;5.926;2022-11-15T10:22:55;12.75;;;7.63;;
70908;SDS011;58554;52.006;5.926;2022-11-15T10:25:26;12.30;;;6.77;;
70908;SDS011;58554;52.006;5.926;2022-11-15T10:27:56;12.02;;;7.45;;
70908;SDS011;58554;52.006;5.926;2022-11-15T10:30:31;10.30;;;6.20;;
70908;SDS011;58554;52.006;5.926;2022-11-15T10:33:08;11.87;;;6.37;;
70908;SDS011;58554;52.006;5.926;2022-11-15T10:35:49;11.40;;;6.30;;
70908;SDS011;58554;52.006;5.926;2022-11-15T10:38:51;11.10;;;6.70;;
70908;SDS011;58554;52.006;5.926;2022-11-15T10:41:29;9.97;;;6.10;;
70908;SDS011;58554;52.006;5.926;2022-11-15T10:44:12;9.23;;;5.50;;
70908;SDS011;58554;52.006;5.926;2022-11-15T10:47:04;8.53;;;5.10;;
70908;SDS011;58554;52.006;5.926;2022-11-15T10:49:54;7.18;;;4.70;;
70908;SDS011;58554;52.006;5.926;2022-11-15T10:52:31;7.37;;;5.03;;
70908;SDS011;58554;52.006;5.926;2022-11-15T10:55:03;10.03;;;5.00;;
70908;SDS011;58554;52.006;5.926;2022-11-15T10:57:49;6.87;;;4.43;;
70908;SDS011;58554;52.006;5.926;2022-11-15T11:00:29;7.53;;;4.67;;
70908;SDS011;58554;52.006;5.926;2022-11-15T11:03:00;6.50;;;4.33;;
70908;SDS011;58554;52.006;5.926;2022-11-15T11:05:30;6.82;;;3.90;;
70908;SDS011;58554;52.006;5.926;2022-11-15T11:08:03;7.67;;;4.27;;
70908;SDS011;58554;52.006;5.926;2022-11-15T11:10:51;6.23;;;3.50;;
70908;SDS011;58554;52.006;5.926;2022-11-15T11:13:22;6.33;;;3.57;;
70908;SDS011;58554;52.006;5.926;2022-11-15T11:15:52;7.33;;;3.80;;
70908;SDS011;58554;52.006;5.926;2022-11-15T11:18:44;5.77;;;3.80;;
70908;SDS011;58554;52.006;5.926;2022-11-15T11:21:24;6.40;;;3.47;;
70908;SDS011;58554;52.006;5.926;2022-11-15T11:24:10;6.07;;;3.40;;
70908;SDS011;58554;52.006;5.926;2022-11-15T11:26:49;7.20;;;3.93;;
70908;SDS011;58554;52.006;5.926;2022-11-15T11:29:43;5.37;;;3.30;;
70908;SDS011;58554;52.006;5.926;2022-11-15T11:32:44;10.03;;;3.40;;
70908;SDS011;58554;52.006;5.926;2022-11-15T11:35:34;6.03;;;3.27;;
70908;SDS011;58554;52.006;5.926;2022-11-15T11:38:27;4.80;;;2.77;;
70908;SDS011;58554;52.006;5.926;2022-11-15T11:41:24;5.57;;;2.80;;
70908;SDS011;58554;52.006;5.926;2022-11-15T11:44:16;6.57;;;2.88;;
70908;SDS011;58554;52.006;5.926;2022-11-15T11:46:55;4.33;;;2.43;;
70908;SDS011;58554;52.006;5.926;2022-11-15T11:49:28;5.97;;;2.50;;
70908;SDS011;58554;52.006;5.926;2022-11-15T11:52:08;6.83;;;2.80;;
70908;SDS011;58554;52.006;5.926;2022-11-15T11:54:45;5.37;;;2.63;;
70908;SDS011;58554;52.006;5.926;2022-11-15T11:57:28;5.70;;;2.70;;
70908;SDS011;58554;52.006;5.926;2022-11-15T12:00:12;5.07;;;2.50;;
70908;SDS011;58554;52.006;5.926;2022-11-15T12:02:47;6.80;;;2.80;;
70908;SDS011;58554;52.006;5.926;2022-11-15T12:05:38;6.23;;;2.70;;
70908;SDS011;58554;52.006;5.926;2022-11-15T12:08:18;4.60;;;2.60;;
70908;SDS011;58554;52.006;5.926;2022-11-15T12:10:59;4.63;;;2.70;;
70908;SDS011;58554;52.006;5.926;2022-11-15T12:13:37;4.77;;;2.30;;
70908;SDS011;58554;52.006;5.926;2022-11-15T12:16:09;4.10;;;2.33;;
70908;SDS011;58554;52.006;5.926;2022-11-15T12:18:44;4.20;;;2.13;;
70908;SDS011;58554;52.006;5.926;2022-11-15T12:21:17;4.28;;;2.40;;
70908;SDS011;58554;52.006;5.926;2022-11-15T12:23:58;4.37;;;2.40;;
70908;SDS011;58554;52.006;5.926;2022-11-15T12:26:31;5.27;;;2.20;;
70908;SDS011;58554;52.006;5.926;2022-11-15T12:29:09;4.28;;;2.30;;
70908;SDS011;58554;52.006;5.926;2022-11-15T12:31:47;3.83;;;2.50;;
70908;SDS011;58554;52.006;5.926;2022-11-15T12:34:29;5.93;;;3.10;;
70908;SDS011;58554;52.006;5.926;2022-11-15T12:40:19;6.37;;;2.60;;
70908;SDS011;58554;52.006;5.926;2022-11-15T12:43:10;3.83;;;2.13;;
70908;SDS011;58554;52.006;5.926;2022-11-15T12:46:10;3.60;;;2.10;;
70908;SDS011;58554;52.006;5.926;2022-11-15T12:48:52;4.63;;;1.93;;
70908;SDS011;58554;52.006;5.926;2022-11-15T12:51:22;6.18;;;2.40;;
70908;SDS011;58554;52.006;5.926;2022-11-15T13:03:22;3.63;;;1.90;;
70908;SDS011;58554;52.006;5.926;2022-11-15T13:05:59;4.90;;;2.20;;
70908;SDS011;58554;52.006;5.926;2022-11-15T13:17:15;3.50;;;1.60;;
70908;SDS011;58554;52.006;5.926;2022-11-15T13:20:00;5.47;;;2.00;;
70908;SDS011;58554;52.006;5.926;2022-11-15T13:22:44;4.87;;;2.67;;
70908;SDS011;58554;52.006;5.926;2022-11-15T13:25:18;4.07;;;2.10;;
70908;SDS011;58554;52.006;5.926;2022-11-15T13:27:58;3.87;;;2.70;;
70908;SDS011;58554;52.006;5.926;2022-11-15T13:30:27;4.75;;;1.77;;
70908;SDS011;58554;52.006;5.926;2022-11-15T13:32:57;3.77;;;1.80;;
70908;SDS011;58554;52.006;5.926;2022-11-15T13:35:39;3.67;;;1.63;;
70908;SDS011;58554;52.006;5.926;2022-11-15T13:38:11;3.07;;;1.77;;
70908;SDS011;58554;52.006;5.926;2022-11-15T13:40:51;3.90;;;1.67;;
70908;SDS011;58554;52.006;5.926;2022-11-15T13:43:23;4.63;;;1.97;;
70908;SDS011;58554;52.006;5.926;2022-11-15T13:46:06;4.70;;;1.73;;
70908;SDS011;58554;52.006;5.926;2022-11-15T13:48:39;4.15;;;1.80;;
70908;SDS011;58554;52.006;5.926;2022-11-15T13:51:15;4.10;;;1.80;;
70908;SDS011;58554;52.006;5.926;2022-11-15T13:53:49;4.17;;;1.90;;
70908;SDS011;58554;52.006;5.926;2022-11-15T13:56:23;6.30;;;2.00;;
70908;SDS011;58554;52.006;5.926;2022-11-15T13:58:54;3.67;;;1.80;;
70908;SDS011;58554;52.006;5.926;2022-11-15T14:01:21;4.20;;;2.20;;
70908;SDS011;58554;52.006;5.926;2022-11-15T14:03:54;3.30;;;1.80;;
70908;SDS011;58554;52.006;5.926;2022-11-15T14:06:28;3.77;;;2.00;;
70908;SDS011;58554;52.006;5.926;2022-11-15T14:08:58;3.27;;;1.70;;
70908;SDS011;58554;52.006;5.926;2022-11-15T14:11:29;4.10;;;1.98;;
70908;SDS011;58554;52.006;5.926;2022-11-15T14:14:05;3.30;;;1.70;;
70908;SDS011;58554;52.006;5.926;2022-11-15T14:16:40;3.20;;;1.73;;
70908;SDS011;58554;52.006;5.926;2022-11-15T14:19:10;3.93;;;1.77;;
70908;SDS011;58554;52.006;5.926;2022-11-15T14:22:17;3.00;;;1.90;;
70908;SDS011;58554;52.006;5.926;2022-11-15T14:24:50;2.90;;;1.90;;
70908;SDS011;58554;52.006;5.926;2022-11-15T14:27:40;3.80;;;1.87;;
70908;SDS011;58554;52.006;5.926;2022-11-15T14:30:12;3.78;;;1.90;;
70908;SDS011;58554;52.006;5.926;2022-11-15T14:32:43;4.10;;;2.13;;
70908;SDS011;58554;52.006;5.926;2022-11-15T14:35:14;5.05;;;1.90;;
70908;SDS011;58554;52.006;5.926;2022-11-15T14:37:46;5.03;;;2.13;;
70908;SDS011;58554;52.006;5.926;2022-11-15T14:40:14;4.50;;;1.88;;
70908;SDS011;58554;52.006;5.926;2022-11-15T14:42:47;4.00;;;1.80;;
70908;SDS011;58554;52.006;5.926;2022-11-15T14:45:18;3.07;;;1.87;;
70908;SDS011;58554;52.006;5.926;2022-11-15T14:47:47;4.60;;;1.93;;
70908;SDS011;58554;52.006;5.926;2022-11-15T14:50:15;8.00;;;2.30;;
70908;SDS011;58554;52.006;5.926;2022-11-15T14:52:47;5.33;;;2.17;;
70908;SDS011;58554;52.006;5.926;2022-11-15T14:55:16;5.90;;;2.03;;
70908;SDS011;58554;52.006;5.926;2022-11-15T14:57:48;4.77;;;2.10;;
70908;SDS011;58554;52.006;5.926;2022-11-15T15:00:16;5.17;;;2.17;;
70908;SDS011;58554;52.006;5.926;2022-11-15T15:02:43;4.00;;;1.93;;
70908;SDS011;58554;52.006;5.926;2022-11-15T15:05:13;5.10;;;2.17;;
70908;SDS011;58554;52.006;5.926;2022-11-15T15:07:43;3.00;;;1.90;;
70908;SDS011;58554;52.006;5.926;2022-11-15T15:10:13;5.27;;;2.43;;
70908;SDS011;58554;52.006;5.926;2022-11-15T15:12:42;4.07;;;2.20;;
70908;SDS011;58554;52.006;5.926;2022-11-15T15:15:11;3.77;;;2.20;;
70908;SDS011;58554;52.006;5.926;2022-11-15T15:17:40;5.88;;;2.40;;
70908;SDS011;58554;52.006;5.926;2022-11-15T15:20:07;4.35;;;2.40;;
70908;SDS011;58554;52.006;5.926;2022-11-15T15:22:35;5.20;;;2.53;;
70908;SDS011;58554;52.006;5.926;2022-11-15T15:25:11;4.83;;;2.30;;
70908;SDS011;58554;52.006;5.926;2022-11-15T15:27:47;5.20;;;2.13;;
70908;SDS011;58554;52.006;5.926;2022-11-15T15:30:14;6.20;;;2.45;;